createdAt,value
2022-10-28T00:01:24.702Z,11.22
2022-10-28T00:03:58.708Z,11.28
2022-10-28T00:06:32.545Z,11.30
2022-10-28T00:09:01.539Z,11.30
2022-10-28T00:11:34.849Z,11.30
2022-10-28T00:14:06.014Z,11.30
2022-10-28T00:16:37.144Z,11.30
2022-10-28T00:19:07.562Z,11.30
2022-10-28T00:21:38.514Z,11.30
2022-10-28T00:24:08.870Z,11.30
2022-10-28T00:26:42.286Z,11.30
2022-10-28T00:29:16.801Z,11.30
2022-10-28T00:31:47.105Z,11.30
2022-10-28T00:34:17.867Z,11.34
2022-10-28T00:36:47.608Z,11.40
2022-10-28T00:39:25.869Z,11.40
2022-10-28T00:41:59.410Z,11.40
2022-10-28T00:45:00.737Z,11.40
2022-10-28T00:48:03.081Z,11.46
2022-10-28T00:50:43.492Z,11.50
2022-10-28T00:53:19.023Z,11.50
2022-10-28T00:55:49.308Z,11.50
2022-10-28T00:58:20.995Z,11.50
2022-10-28T01:00:48.721Z,11.50
2022-10-28T01:03:17.795Z,11.50
2022-10-28T01:05:49.049Z,11.50
2022-10-28T01:08:17.736Z,11.50
2022-10-28T01:11:15.985Z,11.50
2022-10-28T01:14:09.214Z,11.50
2022-10-28T01:17:01.664Z,11.50
2022-10-28T01:20:14.494Z,11.50
2022-10-28T01:22:58.713Z,11.50
2022-10-28T01:25:58.169Z,11.52
2022-10-28T01:29:00.198Z,11.56
2022-10-28T01:31:44.603Z,11.50
2022-10-28T01:34:36.012Z,11.58
2022-10-28T01:37:23.621Z,11.60
2022-10-28T01:40:00.205Z,11.58
2022-10-28T01:43:06.888Z,11.60
2022-10-28T01:45:54.173Z,11.58
2022-10-28T01:48:33.881Z,11.50
2022-10-28T01:51:15.703Z,11.50
2022-10-28T01:53:49.146Z,11.50
2022-10-28T01:56:25.477Z,11.50
2022-10-28T01:58:59.400Z,11.50
2022-10-28T02:01:30.878Z,11.50
2022-10-28T02:03:58.699Z,11.50
2022-10-28T02:06:31.356Z,11.50
2022-10-28T02:09:29.967Z,11.40
2022-10-28T02:12:21.981Z,11.40
2022-10-28T02:15:10.999Z,11.40
2022-10-28T02:17:55.456Z,11.40
2022-10-28T02:20:36.576Z,11.48
2022-10-28T02:23:59.125Z,11.40
2022-10-28T02:26:43.480Z,11.40
2022-10-28T02:29:33.389Z,11.40
2022-10-28T02:32:18.553Z,11.40
2022-10-28T02:34:50.952Z,11.40
2022-10-28T02:37:29.544Z,11.38
2022-10-28T02:40:04.267Z,11.38
2022-10-28T02:42:45.893Z,11.32
2022-10-28T02:45:31.271Z,11.30
2022-10-28T02:48:07.859Z,11.30
2022-10-28T02:50:42.523Z,11.40
2022-10-28T02:53:41.697Z,11.40
2022-10-28T02:56:11.628Z,11.40
2022-10-28T02:58:40.900Z,11.36
2022-10-28T03:01:08.573Z,11.30
2022-10-28T03:03:36.408Z,11.30
2022-10-28T03:06:04.109Z,11.30
2022-10-28T03:08:31.724Z,11.30
2022-10-28T03:10:59.336Z,11.30
2022-10-28T03:13:26.898Z,11.30
2022-10-28T03:15:54.441Z,11.30
2022-10-28T03:18:22.089Z,11.30
2022-10-28T03:20:49.729Z,11.30
2022-10-28T03:23:17.336Z,11.30
2022-10-28T03:25:44.926Z,11.30
2022-10-28T03:28:12.469Z,11.30
2022-10-28T03:30:40.116Z,11.30
2022-10-28T03:33:07.695Z,11.30
2022-10-28T03:35:35.276Z,11.40
2022-10-28T03:38:03.036Z,11.40
2022-10-28T03:40:31.217Z,11.40
2022-10-28T03:42:58.721Z,11.40
2022-10-28T03:45:26.298Z,11.40
2022-10-28T03:47:54.016Z,11.40
2022-10-28T03:50:21.974Z,11.40
2022-10-28T03:52:49.496Z,11.38
2022-10-28T03:55:17.541Z,11.40
2022-10-28T03:57:45.114Z,11.40
2022-10-28T04:00:13.883Z,11.40
2022-10-28T04:02:41.544Z,11.40
2022-10-28T04:05:09.553Z,11.40
2022-10-28T04:07:37.080Z,11.40
2022-10-28T04:10:05.160Z,11.40
2022-10-28T04:12:32.792Z,11.40
2022-10-28T04:15:00.422Z,11.40
2022-10-28T04:17:28.075Z,11.40
2022-10-28T04:19:55.717Z,11.40
2022-10-28T04:22:23.371Z,11.40
2022-10-28T04:24:50.964Z,11.32
2022-10-28T04:27:18.498Z,11.36
2022-10-28T04:29:46.280Z,11.40
2022-10-28T04:32:13.817Z,11.30
2022-10-28T04:34:41.437Z,11.30
2022-10-28T04:37:09.041Z,11.30
2022-10-28T04:39:36.717Z,11.30
2022-10-28T04:42:04.365Z,11.30
2022-10-28T04:44:31.969Z,11.30
2022-10-28T04:46:59.628Z,11.38
2022-10-28T04:49:27.243Z,11.40
2022-10-28T04:51:54.950Z,11.40
2022-10-28T04:54:22.533Z,11.40
2022-10-28T04:56:50.280Z,11.40
2022-10-28T04:59:17.850Z,11.40
2022-10-28T05:01:45.621Z,11.40
2022-10-28T05:04:13.358Z,11.50
2022-10-28T05:06:41.043Z,11.50
2022-10-28T05:09:08.652Z,11.50
2022-10-28T05:11:36.277Z,11.50
2022-10-28T05:14:04.591Z,11.50
2022-10-28T05:16:32.221Z,11.50
2022-10-28T05:19:00.156Z,11.50
2022-10-28T05:21:27.730Z,11.50
2022-10-28T05:23:55.420Z,11.44
2022-10-28T05:26:23.206Z,11.40
2022-10-28T05:28:51.289Z,11.40
2022-10-28T05:31:18.919Z,11.40
2022-10-28T05:33:46.528Z,11.40
2022-10-28T05:36:14.090Z,11.40
2022-10-28T05:38:45.500Z,11.40
2022-10-28T05:41:13.219Z,11.42
2022-10-28T05:43:40.763Z,11.40
2022-10-28T05:46:09.459Z,11.40
2022-10-28T05:48:37.155Z,11.40
2022-10-28T05:51:04.933Z,11.40
2022-10-28T05:53:32.815Z,11.40
2022-10-28T05:56:00.509Z,11.42
2022-10-28T05:58:28.215Z,11.40
2022-10-28T06:00:55.904Z,11.40
2022-10-28T06:03:28.537Z,11.40
2022-10-28T06:05:59.355Z,11.40
2022-10-28T06:08:27.894Z,11.40
2022-10-28T06:10:54.070Z,11.40
2022-10-28T06:13:22.155Z,11.40
2022-10-28T06:15:55.204Z,11.40
2022-10-28T06:18:23.383Z,11.40
2022-10-28T06:20:57.128Z,11.42
2022-10-28T06:23:27.646Z,11.50
2022-10-28T06:26:01.562Z,11.50
2022-10-28T06:28:30.654Z,11.50
2022-10-28T06:31:03.864Z,11.50
2022-10-28T06:33:31.890Z,11.50
2022-10-28T06:36:00.910Z,11.60
2022-10-28T06:38:28.828Z,11.60
2022-10-28T06:41:00.205Z,11.66
2022-10-28T06:43:27.900Z,11.70
2022-10-28T06:45:59.798Z,11.74
2022-10-28T06:48:28.936Z,11.80
2022-10-28T06:50:58.072Z,11.78
2022-10-28T06:53:26.281Z,11.80
2022-10-28T06:55:56.788Z,11.80
2022-10-28T06:58:26.263Z,11.86
2022-10-28T07:00:55.963Z,11.90
2022-10-28T07:03:22.708Z,11.90
2022-10-28T07:05:51.601Z,12.00
2022-10-28T07:08:19.929Z,12.04
2022-10-28T07:10:56.298Z,12.10
2022-10-28T07:13:25.085Z,12.20
2022-10-28T07:15:58.798Z,12.30
2022-10-28T07:18:29.605Z,12.40
2022-10-28T07:21:01.610Z,12.50
2022-10-28T07:23:32.929Z,12.60
2022-10-28T07:26:01.133Z,12.70
2022-10-28T07:28:29.351Z,12.80
2022-10-28T07:31:04.464Z,12.80
2022-10-28T07:33:32.056Z,12.90
2022-10-28T07:35:59.816Z,13.00
2022-10-28T07:38:27.538Z,13.00
2022-10-28T07:40:55.141Z,13.10
2022-10-28T07:43:23.084Z,13.12
2022-10-28T07:45:58.396Z,13.20
2022-10-28T07:48:26.142Z,13.30
2022-10-28T07:50:54.141Z,13.32
2022-10-28T07:53:23.686Z,13.44
2022-10-28T07:56:02.527Z,13.50
2022-10-28T07:58:30.842Z,13.60
2022-10-28T08:01:07.579Z,13.60
2022-10-28T08:03:39.032Z,13.68
2022-10-28T08:06:20.082Z,13.70
2022-10-28T08:08:55.912Z,13.80
2022-10-28T08:11:24.601Z,13.80
2022-10-28T08:13:53.666Z,13.86
2022-10-28T08:16:21.299Z,13.90
2022-10-28T08:18:48.917Z,13.92
2022-10-28T08:21:16.969Z,14.00
2022-10-28T08:23:47.692Z,14.10
2022-10-28T08:26:16.998Z,14.10
2022-10-28T08:28:44.730Z,14.10
2022-10-28T08:31:12.871Z,14.20
2022-10-28T08:33:45.151Z,14.28
2022-10-28T08:36:17.054Z,14.30
2022-10-28T08:38:46.802Z,14.40
2022-10-28T08:42:00.592Z,14.44
2022-10-28T08:45:15.899Z,14.50
2022-10-28T08:48:08.991Z,14.56
2022-10-28T08:50:50.979Z,14.60
2022-10-28T08:53:31.711Z,14.66
2022-10-28T08:56:31.655Z,14.70
2022-10-28T08:59:04.665Z,14.72
2022-10-28T09:01:49.461Z,14.80
2022-10-28T09:04:37.451Z,14.90
2022-10-28T09:07:09.575Z,14.92
2022-10-28T09:09:38.776Z,15.00
2022-10-28T09:12:35.646Z,15.00
2022-10-28T09:15:18.037Z,15.08
2022-10-28T09:17:56.777Z,15.10
2022-10-28T09:20:59.879Z,15.10
2022-10-28T09:23:33.377Z,15.20
2022-10-28T09:26:29.290Z,15.28
2022-10-28T09:29:19.671Z,15.30
2022-10-28T09:32:05.197Z,15.30
2022-10-28T09:34:38.856Z,15.40
2022-10-28T09:37:17.990Z,15.40
2022-10-28T09:39:53.186Z,15.44
2022-10-28T09:45:23.626Z,15.60
2022-10-28T09:48:03.167Z,15.60
2022-10-28T09:50:33.240Z,15.66
2022-10-28T09:53:36.254Z,15.70
2022-10-28T09:56:06.481Z,15.80
2022-10-28T09:58:36.478Z,15.90
2022-10-28T10:01:05.047Z,16.00
2022-10-28T10:03:33.118Z,16.10
2022-10-28T10:06:14.029Z,16.20
2022-10-28T10:08:42.840Z,16.30
2022-10-28T10:11:46.318Z,16.30
2022-10-28T10:14:38.871Z,16.40
2022-10-28T10:17:16.940Z,16.40
2022-10-28T10:20:12.351Z,16.40
2022-10-28T10:22:42.575Z,16.50
2022-10-28T10:25:19.548Z,16.50
2022-10-28T10:28:14.587Z,16.52
2022-10-28T10:31:10.712Z,16.60
2022-10-28T10:33:40.749Z,16.60
2022-10-28T10:36:11.555Z,16.60
2022-10-28T10:38:49.289Z,16.70
2022-10-28T10:41:39.620Z,16.70
2022-10-28T10:44:22.734Z,16.80
2022-10-28T10:47:16.892Z,16.80
2022-10-28T10:49:44.494Z,16.90
2022-10-28T10:52:23.841Z,16.90
2022-10-28T10:55:19.136Z,16.90
2022-10-28T10:57:49.073Z,16.90
2022-10-28T11:00:21.529Z,16.90
2022-10-28T11:02:53.556Z,16.90
2022-10-28T11:05:27.209Z,16.90
2022-10-28T11:08:05.090Z,16.90
2022-10-28T11:10:35.311Z,16.90
2022-10-28T11:13:27.123Z,16.94
2022-10-28T11:16:05.783Z,16.90
2022-10-28T11:18:53.276Z,16.90
2022-10-28T11:21:36.970Z,16.94
2022-10-28T11:24:41.977Z,16.90
2022-10-28T11:27:56.309Z,16.90
2022-10-28T11:30:47.742Z,16.90
2022-10-28T11:33:30.067Z,16.90
2022-10-28T11:36:30.419Z,16.90
2022-10-28T11:39:37.375Z,16.96
2022-10-28T11:42:23.851Z,16.90
2022-10-28T11:45:03.835Z,16.90
2022-10-28T11:48:01.207Z,16.90
2022-10-28T11:50:42.623Z,16.90
2022-10-28T11:53:41.792Z,16.90
2022-10-28T11:56:49.587Z,16.90
2022-10-28T11:59:39.932Z,16.92
2022-10-28T12:02:25.936Z,16.90
2022-10-28T12:05:18.841Z,16.96
2022-10-28T12:08:05.275Z,17.00
2022-10-28T12:10:47.642Z,17.00
2022-10-28T12:13:35.078Z,17.02
2022-10-28T12:16:46.168Z,17.10
2022-10-28T12:19:24.292Z,17.10
2022-10-28T12:22:55.716Z,17.20
2022-10-28T12:25:35.692Z,17.20
2022-10-28T12:28:44.887Z,17.30
2022-10-28T12:31:31.652Z,17.30
2022-10-28T12:34:09.131Z,17.40
2022-10-28T12:36:48.167Z,17.40
2022-10-28T12:39:25.557Z,17.40
2022-10-28T12:42:18.423Z,17.40
2022-10-28T12:44:52.841Z,17.40
2022-10-28T12:47:37.845Z,17.50
2022-10-28T12:50:08.408Z,17.50
2022-10-28T12:52:59.772Z,17.50
2022-10-28T12:55:47.986Z,17.50
2022-10-28T12:58:42.238Z,17.50
2022-10-28T13:01:18.294Z,17.50
2022-10-28T13:03:45.992Z,17.50
2022-10-28T13:06:28.806Z,17.50
2022-10-28T13:09:46.993Z,17.50
2022-10-28T13:12:42.075Z,17.50
2022-10-28T13:15:16.272Z,17.50
2022-10-28T13:18:05.454Z,17.50
2022-10-28T13:21:19.727Z,17.54
2022-10-28T13:24:11.571Z,17.58
2022-10-28T13:26:44.617Z,17.60
2022-10-28T13:29:24.187Z,17.60
2022-10-28T13:31:54.355Z,17.60
2022-10-28T13:34:33.814Z,17.50
2022-10-28T13:37:06.666Z,17.50
2022-10-28T13:39:37.727Z,17.50
2022-10-28T13:42:14.838Z,17.40
2022-10-28T13:45:02.525Z,17.40
2022-10-28T13:47:37.776Z,17.40
2022-10-28T13:50:08.822Z,17.40
2022-10-28T13:52:45.476Z,17.36
2022-10-28T13:55:18.956Z,17.30
2022-10-28T13:57:49.772Z,17.30
2022-10-28T14:00:17.384Z,17.30
2022-10-28T14:03:21.354Z,17.30
2022-10-28T14:05:48.993Z,17.30
2022-10-28T14:08:28.746Z,17.30
2022-10-28T14:11:11.462Z,17.28
2022-10-28T14:13:49.150Z,17.28
2022-10-28T14:16:24.676Z,17.20
2022-10-28T14:19:04.037Z,17.20
2022-10-28T14:21:50.821Z,17.20
2022-10-28T14:24:41.310Z,17.20
2022-10-28T14:27:08.988Z,17.20
2022-10-28T14:30:10.287Z,17.10
2022-10-28T14:32:43.567Z,17.10
2022-10-28T14:35:12.929Z,17.10
2022-10-28T14:38:20.860Z,17.06
2022-10-28T14:40:54.217Z,17.00
2022-10-28T14:43:59.241Z,17.00
2022-10-28T14:46:46.912Z,16.92
2022-10-28T14:49:30.944Z,16.90
2022-10-28T14:52:08.850Z,16.90
2022-10-28T14:54:47.565Z,16.90
2022-10-28T14:57:22.216Z,16.82
2022-10-28T14:59:51.775Z,16.80
2022-10-28T15:02:29.853Z,16.70
2022-10-28T15:05:20.355Z,16.70
2022-10-28T15:07:48.495Z,16.70
2022-10-28T15:10:25.998Z,16.60
2022-10-28T15:12:57.221Z,16.60
2022-10-28T15:15:29.867Z,16.50
2022-10-28T15:18:00.104Z,16.50
2022-10-28T15:20:35.704Z,16.48
2022-10-28T15:23:17.344Z,16.40
2022-10-28T15:25:45.614Z,16.40
2022-10-28T15:28:14.206Z,16.38
2022-10-28T15:30:46.624Z,16.30
2022-10-28T15:33:31.643Z,16.20
2022-10-28T15:36:22.560Z,16.20
2022-10-28T15:39:17.597Z,16.10
2022-10-28T15:41:55.346Z,16.00
2022-10-28T15:44:34.634Z,15.90
2022-10-28T15:47:23.357Z,15.82
2022-10-28T15:50:17.397Z,15.80
2022-10-28T15:52:48.247Z,15.70
2022-10-28T15:55:18.403Z,15.70
2022-10-28T15:57:52.970Z,15.62
2022-10-28T16:00:32.552Z,15.60
2022-10-28T16:03:05.331Z,15.54
2022-10-28T16:05:33.223Z,15.50
2022-10-28T16:08:07.232Z,15.50
2022-10-28T16:10:43.992Z,15.50
2022-10-28T16:13:24.807Z,15.40
2022-10-28T16:16:03.069Z,15.40
2022-10-28T16:18:38.935Z,15.40
2022-10-28T16:21:07.492Z,15.30
2022-10-28T16:23:40.173Z,15.30
2022-10-28T16:26:12.303Z,15.30
2022-10-28T16:28:44.978Z,15.20
2022-10-28T16:31:17.546Z,15.20
2022-10-28T16:33:45.719Z,15.10
2022-10-28T16:36:14.454Z,15.10
2022-10-28T16:38:42.263Z,15.10
2022-10-28T16:41:19.845Z,15.02
2022-10-28T16:43:47.512Z,15.06
2022-10-28T16:46:15.191Z,15.00
2022-10-28T16:48:42.827Z,14.90
2022-10-28T16:51:18.152Z,14.90
2022-10-28T16:53:50.830Z,14.80
2022-10-28T16:56:18.590Z,14.80
2022-10-28T16:58:46.808Z,14.80
2022-10-28T17:01:20.751Z,14.74
2022-10-28T17:03:48.485Z,14.70
2022-10-28T17:06:16.060Z,14.70
2022-10-28T17:14:04.167Z,14.60
2022-10-28T17:16:31.819Z,14.50
2022-10-28T17:18:59.639Z,14.50
2022-10-28T17:21:27.935Z,14.50
2022-10-28T17:23:55.639Z,14.40
2022-10-28T17:26:23.313Z,14.40
2022-10-28T17:28:52.558Z,14.40
2022-10-28T17:31:23.921Z,14.30
2022-10-28T17:33:54.873Z,14.30
2022-10-28T17:36:23.334Z,14.30
2022-10-28T17:38:51.060Z,14.22
2022-10-28T17:41:19.268Z,14.20
2022-10-28T17:43:46.824Z,14.20
2022-10-28T17:46:14.439Z,14.20
2022-10-28T17:48:42.078Z,14.20
2022-10-28T17:51:09.681Z,14.20
2022-10-28T17:53:37.497Z,14.20
2022-10-28T17:56:07.280Z,14.20
2022-10-28T17:58:35.517Z,14.26
2022-10-28T18:01:07.716Z,14.30
2022-10-28T18:03:38.544Z,14.30
2022-10-28T18:06:11.843Z,14.20
2022-10-28T18:08:42.444Z,14.20
2022-10-28T18:11:14.106Z,14.20
2022-10-28T18:13:55.977Z,14.10
2022-10-28T18:16:28.051Z,14.10
2022-10-28T18:18:56.470Z,14.10
2022-10-28T18:21:24.663Z,14.02
2022-10-28T18:23:53.831Z,14.00
2022-10-28T18:26:21.950Z,14.00
2022-10-28T18:28:49.706Z,14.00
2022-10-28T18:31:20.311Z,14.00
2022-10-28T18:33:49.095Z,13.90
2022-10-28T18:36:21.366Z,13.90
2022-10-28T18:38:50.809Z,13.90
2022-10-28T18:41:25.194Z,13.94
2022-10-28T18:43:59.746Z,14.00
2022-10-28T18:46:29.964Z,14.00
2022-10-28T18:48:57.766Z,14.00
2022-10-28T18:51:25.673Z,14.00
2022-10-28T18:53:55.049Z,13.96
2022-10-28T18:56:26.220Z,13.90
2022-10-28T18:58:55.170Z,13.90
2022-10-28T19:01:28.444Z,13.86
2022-10-28T19:04:05.145Z,13.80
2022-10-28T19:06:33.792Z,13.80
2022-10-28T19:09:04.737Z,13.80
2022-10-28T19:11:34.614Z,13.70
2022-10-28T19:14:05.702Z,13.70
2022-10-28T19:16:35.762Z,13.68
2022-10-28T19:19:04.958Z,13.68
2022-10-28T19:21:33.917Z,13.60
2022-10-28T19:24:01.702Z,13.60
2022-10-28T19:26:31.993Z,13.60
2022-10-28T19:28:59.859Z,13.60
2022-10-28T19:31:27.720Z,13.60
2022-10-28T19:33:55.564Z,13.60
2022-10-28T19:36:29.365Z,13.60
2022-10-28T19:38:58.139Z,13.60
2022-10-28T19:41:29.746Z,13.60
2022-10-28T19:44:00.888Z,13.50
2022-10-28T19:46:34.769Z,13.50
2022-10-28T19:49:05.800Z,13.48
2022-10-28T19:51:37.465Z,13.40
2022-10-28T19:54:15.150Z,13.40
2022-10-28T19:56:44.541Z,13.40
2022-10-28T19:59:12.136Z,13.30
2022-10-28T20:01:41.012Z,13.24
2022-10-28T20:04:10.135Z,13.24
2022-10-28T20:06:40.851Z,13.20
2022-10-28T20:09:08.862Z,13.20
2022-10-28T20:11:38.836Z,13.14
2022-10-28T20:14:12.732Z,13.10
2022-10-28T20:16:43.605Z,13.10
2022-10-28T20:19:12.232Z,13.08
2022-10-28T20:21:40.115Z,13.08
2022-10-28T20:24:08.841Z,13.10
2022-10-28T20:26:38.837Z,13.06
2022-10-28T20:29:08.687Z,13.00
2022-10-28T20:31:38.947Z,13.00
2022-10-28T20:34:08.037Z,13.00
2022-10-28T20:36:44.120Z,13.08
2022-10-28T20:39:15.655Z,13.10
2022-10-28T20:41:45.828Z,13.10
2022-10-28T20:44:14.456Z,13.08
2022-10-28T20:46:44.992Z,13.00
2022-10-28T20:49:13.412Z,13.00
2022-10-28T20:51:42.008Z,13.00
2022-10-28T20:54:09.738Z,12.90
2022-10-28T20:56:40.315Z,12.90
2022-10-28T20:59:08.395Z,12.90
2022-10-28T21:01:40.769Z,12.80
2022-10-28T21:04:11.437Z,12.80
2022-10-28T21:06:40.766Z,12.90
2022-10-28T21:09:09.152Z,12.90
2022-10-28T21:11:37.070Z,12.90
2022-10-28T21:14:04.743Z,12.90
2022-10-28T21:16:32.639Z,12.90
2022-10-28T21:19:00.345Z,12.90
2022-10-28T21:21:30.343Z,12.88
2022-10-28T21:24:00.333Z,12.80
2022-10-28T21:26:27.920Z,12.80
2022-10-28T21:28:56.375Z,12.80
2022-10-28T21:31:24.843Z,12.82
2022-10-28T21:33:53.519Z,12.82
2022-10-28T21:36:22.789Z,12.90
2022-10-28T21:38:57.824Z,12.90
2022-10-28T21:41:25.580Z,12.90
2022-10-28T21:43:54.362Z,12.88
2022-10-28T21:46:23.387Z,12.80
2022-10-28T21:48:52.609Z,12.80
2022-10-28T21:51:20.195Z,12.70
2022-10-28T21:53:47.851Z,12.70
2022-10-28T21:56:19.417Z,12.70
2022-10-28T21:58:49.920Z,12.60
2022-10-28T22:01:22.498Z,12.60
2022-10-28T22:03:54.398Z,12.60
2022-10-28T22:06:22.997Z,12.70
2022-10-28T22:08:55.626Z,12.70
2022-10-28T22:11:24.106Z,12.70
2022-10-28T22:13:59.693Z,12.70
2022-10-28T22:16:30.524Z,12.70
2022-10-28T22:19:00.432Z,12.70
2022-10-28T22:21:32.114Z,12.70
2022-10-28T22:23:59.999Z,12.70
2022-10-28T22:26:30.466Z,12.70
2022-10-28T22:28:58.595Z,12.60
2022-10-28T22:31:33.831Z,12.60
2022-10-28T22:34:02.349Z,12.60
2022-10-28T22:36:30.311Z,12.60
2022-10-28T22:38:58.688Z,12.58
2022-10-28T22:41:29.908Z,12.50
2022-10-28T22:44:01.071Z,12.50
2022-10-28T22:46:33.735Z,12.50
2022-10-28T22:49:01.359Z,12.50
2022-10-28T22:51:29.009Z,12.50
2022-10-28T22:53:57.246Z,12.50
2022-10-28T22:56:27.416Z,12.50
2022-10-28T22:58:58.619Z,12.50
2022-10-28T23:01:28.861Z,12.50
2022-10-28T23:03:56.899Z,12.50
2022-10-28T23:06:27.560Z,12.50
2022-10-28T23:08:55.887Z,12.50
2022-10-28T23:11:23.687Z,12.50
2022-10-28T23:13:53.882Z,12.50
2022-10-28T23:16:23.627Z,12.50
2022-10-28T23:18:53.191Z,12.50
2022-10-28T23:21:24.397Z,12.50
2022-10-28T23:23:57.870Z,12.50
2022-10-28T23:26:28.367Z,12.50
2022-10-28T23:28:59.126Z,12.50
2022-10-28T23:31:27.729Z,12.50
2022-10-28T23:33:55.615Z,12.50
2022-10-28T23:36:23.497Z,12.54
2022-10-28T23:38:51.788Z,12.60
2022-10-28T23:41:21.029Z,12.52
2022-10-28T23:43:49.373Z,12.50
2022-10-28T23:46:17.918Z,12.50
2022-10-28T23:48:45.505Z,12.50
2022-10-28T23:51:13.106Z,12.50
2022-10-28T23:53:40.758Z,12.50
2022-10-28T23:56:08.786Z,12.44
2022-10-28T23:58:36.452Z,12.40
